createdAt,value
2023-03-31T00:00:17.595Z,95798.47
2023-03-31T00:03:22.402Z,95791.88
2023-03-31T00:06:19.636Z,95785.16
2023-03-31T00:09:21.951Z,95790.28
2023-03-31T00:12:18.791Z,95789.50
2023-03-31T00:15:15.611Z,95776.84
2023-03-31T00:18:12.544Z,95781.78
2023-03-31T00:21:14.479Z,95771.69
2023-03-31T00:24:13.516Z,95775.22
2023-03-31T00:27:11.553Z,95754.84
2023-03-31T00:30:09.236Z,95756.56
2023-03-31T00:33:06.176Z,95749.72
2023-03-31T00:36:06.296Z,95748.44
2023-03-31T00:39:09.573Z,95746.28
2023-03-31T00:42:08.936Z,95744.63
2023-03-31T00:45:14.549Z,95743.13
2023-03-31T00:48:18.312Z,95729.91
2023-03-31T00:51:15.902Z,95729.63
2023-03-31T00:54:12.802Z,95723.69
2023-03-31T00:57:11.446Z,95713.38
2023-03-31T01:00:18.569Z,95710.81
2023-03-31T01:03:16.107Z,95705.50
2023-03-31T01:06:19.669Z,95703.47
2023-03-31T01:09:17.021Z,95691.88
2023-03-31T01:12:17.832Z,95703.63
2023-03-31T01:15:14.665Z,95694.53
2023-03-31T01:18:13.855Z,95695.19
2023-03-31T01:21:30.821Z,95680.34
2023-03-31T01:25:08.977Z,95679.53
2023-03-31T01:28:14.540Z,95683.88
2023-03-31T01:31:35.341Z,95684.50
2023-03-31T01:35:13.987Z,95672.47
2023-03-31T01:39:35.488Z,95671.22
2023-03-31T01:42:48.726Z,95660.69
2023-03-31T01:46:10.374Z,95662.28
2023-03-31T01:49:32.220Z,95645.47
2023-03-31T01:53:01.437Z,95639.88
2023-03-31T01:56:17.296Z,95627.78
2023-03-31T01:59:34.094Z,95621.97
2023-03-31T02:02:42.328Z,95627.31
2023-03-31T02:05:51.450Z,95618.03
2023-03-31T02:09:14.908Z,95600.97
2023-03-31T02:12:13.609Z,95603.03
2023-03-31T02:15:18.341Z,95607.06
2023-03-31T02:18:19.142Z,95607.41
2023-03-31T02:21:16.445Z,95598.53
2023-03-31T02:24:15.233Z,95600.09
2023-03-31T02:27:36.262Z,95591.31
2023-03-31T02:31:07.792Z,95577.06
2023-03-31T02:34:04.689Z,95569.84
2023-03-31T02:37:01.862Z,95574.25
2023-03-31T02:40:06.270Z,95574.88
2023-03-31T02:43:03.823Z,95561.84
2023-03-31T02:46:00.689Z,95560.94
2023-03-31T02:49:01.208Z,95549.97
2023-03-31T02:52:59.685Z,95555.09
2023-03-31T02:56:44.847Z,95550.59
2023-03-31T03:00:29.110Z,95549.31
2023-03-31T03:03:45.241Z,95532.38
2023-03-31T03:07:16.934Z,95530.97
2023-03-31T03:10:35.991Z,95517.63
2023-03-31T03:13:48.668Z,95518.63
2023-03-31T03:16:53.289Z,95507.63
2023-03-31T03:19:57.047Z,95504.97
2023-03-31T03:22:53.880Z,95498.06
2023-03-31T03:25:51.143Z,95503.09
2023-03-31T03:28:49.077Z,95512.66
2023-03-31T03:31:45.932Z,95501.19
2023-03-31T03:34:42.785Z,95490.22
2023-03-31T03:37:39.656Z,95489.88
2023-03-31T03:40:36.527Z,95483.28
2023-03-31T03:43:33.369Z,95474.50
2023-03-31T03:46:30.381Z,95472.94
2023-03-31T03:49:27.281Z,95463.06
2023-03-31T03:52:24.103Z,95455.84
2023-03-31T03:55:20.910Z,95444.41
2023-03-31T03:58:19.664Z,95428.75
2023-03-31T04:01:16.813Z,95428.75
2023-03-31T04:04:13.657Z,95422.13
2023-03-31T04:07:10.545Z,95414.31
2023-03-31T04:10:08.800Z,95409.28
2023-03-31T04:13:06.760Z,95407.09
2023-03-31T04:16:03.743Z,95407.09
2023-03-31T04:19:03.763Z,95402.41
2023-03-31T04:22:03.021Z,95397.22
2023-03-31T04:25:00.335Z,95387.81
2023-03-31T04:27:57.334Z,95366.00
2023-03-31T04:30:58.870Z,95356.75
2023-03-31T04:33:56.551Z,95355.97
2023-03-31T04:36:56.149Z,95336.84
2023-03-31T04:39:54.634Z,95333.56
2023-03-31T04:42:51.835Z,95327.91
2023-03-31T04:45:48.697Z,95318.03
2023-03-31T04:48:45.726Z,95306.28
2023-03-31T04:51:42.550Z,95293.88
2023-03-31T04:54:39.370Z,95292.28
2023-03-31T04:57:37.198Z,95291.38
2023-03-31T05:00:34.011Z,95294.50
2023-03-31T05:03:31.056Z,95293.56
2023-03-31T05:06:28.027Z,95294.97
2023-03-31T05:09:24.894Z,95299.69
2023-03-31T05:12:21.816Z,95300.63
2023-03-31T05:15:18.751Z,95306.91
2023-03-31T05:18:15.686Z,95306.56
2023-03-31T05:21:15.809Z,95288.84
2023-03-31T05:24:13.558Z,95295.28
2023-03-31T05:27:10.631Z,95287.94
2023-03-31T05:30:08.184Z,95281.63
2023-03-31T05:33:05.136Z,95278.84
2023-03-31T05:36:02.120Z,95274.16
2023-03-31T05:38:59.048Z,95265.19
2023-03-31T05:41:55.891Z,95265.19
2023-03-31T05:44:52.775Z,95272.59
2023-03-31T05:47:49.684Z,95252.22
2023-03-31T05:50:46.776Z,95205.16
2023-03-31T05:53:44.110Z,95188.84
2023-03-31T05:56:40.952Z,95196.66
2023-03-31T05:59:38.489Z,95207.47
2023-03-31T06:02:35.768Z,95216.69
2023-03-31T06:05:32.822Z,95230.66
2023-03-31T06:08:30.101Z,95229.72
2023-03-31T06:11:27.205Z,95223.50
2023-03-31T06:14:24.205Z,95219.88
2023-03-31T06:17:21.113Z,95205.59
2023-03-31T06:20:27.838Z,95203.56
2023-03-31T06:23:26.698Z,95213.75
2023-03-31T06:26:23.821Z,95203.56
2023-03-31T06:29:20.800Z,95215.00
2023-03-31T06:32:17.843Z,95221.63
2023-03-31T06:35:14.690Z,95213.63
2023-03-31T06:38:11.626Z,95209.50
2023-03-31T06:41:12.819Z,95191.75
2023-03-31T06:44:09.890Z,95204.13
2023-03-31T06:47:06.735Z,95194.41
2023-03-31T06:50:04.873Z,95196.00
2023-03-31T06:53:01.760Z,95186.91
2023-03-31T06:55:58.753Z,95183.13
2023-03-31T06:58:55.607Z,95184.41
2023-03-31T07:01:52.962Z,95184.91
2023-03-31T07:04:50.336Z,95181.91
2023-03-31T07:07:47.169Z,95175.63
2023-03-31T07:10:47.391Z,95173.72
2023-03-31T07:13:44.253Z,95171.22
2023-03-31T07:16:41.270Z,95176.88
2023-03-31T07:19:41.880Z,95178.94
2023-03-31T07:22:41.451Z,95172.31
2023-03-31T07:25:38.377Z,95171.72
2023-03-31T07:28:35.700Z,95182.72
2023-03-31T07:31:32.820Z,95174.75
2023-03-31T07:34:29.710Z,95168.13
2023-03-31T07:37:26.680Z,95156.81
2023-03-31T07:40:27.025Z,95150.53
2023-03-31T07:43:23.928Z,95146.19
2023-03-31T07:46:25.517Z,95132.81
2023-03-31T07:49:22.408Z,95138.41
2023-03-31T07:52:19.871Z,95126.53
2023-03-31T07:55:17.190Z,95116.94
2023-03-31T07:58:14.451Z,95109.25
2023-03-31T08:01:18.834Z,95099.72
2023-03-31T08:04:15.774Z,95118.03
2023-03-31T08:07:14.992Z,95102.13
2023-03-31T08:10:18.187Z,95097.91
2023-03-31T08:13:15.087Z,95090.38
2023-03-31T08:16:11.934Z,95092.91
2023-03-31T08:19:08.804Z,95079.72
2023-03-31T08:22:05.640Z,95076.53
2023-03-31T08:25:03.404Z,95077.25
2023-03-31T08:28:00.254Z,95072.94
2023-03-31T08:31:02.288Z,95064.31
2023-03-31T08:33:59.448Z,95053.59
2023-03-31T08:36:56.550Z,95055.50
2023-03-31T08:39:54.236Z,95042.16
2023-03-31T08:43:10.324Z,95027.44
2023-03-31T08:46:12.301Z,95041.50
2023-03-31T08:49:18.505Z,95023.16
2023-03-31T08:52:23.636Z,94997.53
2023-03-31T08:55:29.281Z,94994.22
2023-03-31T08:58:48.936Z,94990.06
2023-03-31T09:02:12.357Z,94973.75
2023-03-31T09:06:02.959Z,94971.34
2023-03-31T09:09:03.416Z,94961.16
2023-03-31T09:12:21.061Z,94937.16
2023-03-31T09:15:36.936Z,94942.09
2023-03-31T09:18:37.948Z,94939.81
2023-03-31T09:21:44.424Z,94925.56
2023-03-31T09:24:55.789Z,94923.22
2023-03-31T09:27:56.643Z,94926.94
2023-03-31T09:31:04.985Z,94925.63
2023-03-31T09:34:14.772Z,94918.28
2023-03-31T09:37:13.042Z,94906.00
2023-03-31T09:40:22.866Z,94904.31
2023-03-31T09:43:28.293Z,94899.13
2023-03-31T09:46:35.812Z,94889.03
2023-03-31T09:49:36.426Z,94888.91
2023-03-31T09:52:41.709Z,94889.50
2023-03-31T09:55:52.525Z,94878.84
2023-03-31T09:58:49.271Z,94878.59
2023-03-31T10:01:50.933Z,94881.44
2023-03-31T10:04:47.902Z,94887.03
2023-03-31T10:07:44.977Z,94887.63
2023-03-31T10:11:07.762Z,94874.91
2023-03-31T10:14:13.805Z,94887.28
2023-03-31T10:17:22.181Z,94883.00
2023-03-31T10:20:37.876Z,94874.66
2023-03-31T10:23:36.166Z,94855.69
2023-03-31T10:26:33.001Z,94878.34
2023-03-31T10:29:33.678Z,94881.34
2023-03-31T10:32:34.122Z,94871.91
2023-03-31T10:35:34.655Z,94892.94
2023-03-31T10:38:40.534Z,94889.75
2023-03-31T10:41:39.426Z,94891.00
2023-03-31T10:44:39.413Z,94887.13
2023-03-31T10:47:36.304Z,94883.59
2023-03-31T10:50:36.182Z,94889.22
2023-03-31T10:53:51.843Z,94882.09
2023-03-31T10:57:09.039Z,94872.41
2023-03-31T11:00:22.448Z,94882.53
2023-03-31T11:03:55.200Z,94870.06
2023-03-31T11:07:12.384Z,94890.13
2023-03-31T11:10:15.317Z,94877.84
2023-03-31T11:13:43.068Z,94874.63
2023-03-31T11:17:03.794Z,94868.81
2023-03-31T11:20:51.322Z,94870.94
2023-03-31T11:24:06.779Z,94866.88
2023-03-31T11:27:12.413Z,94866.78
2023-03-31T11:30:41.860Z,94856.84
2023-03-31T11:34:11.394Z,94867.25
2023-03-31T11:37:52.935Z,94858.81
2023-03-31T11:41:09.410Z,94866.44
2023-03-31T11:44:12.207Z,94869.72
2023-03-31T11:47:25.130Z,94863.22
2023-03-31T11:50:27.765Z,94851.78
2023-03-31T11:53:35.792Z,94841.13
2023-03-31T11:56:38.891Z,94842.72
2023-03-31T11:59:37.363Z,94855.63
2023-03-31T12:02:53.071Z,94839.59
2023-03-31T12:06:06.599Z,94847.38
2023-03-31T12:09:50.171Z,94837.47
2023-03-31T12:13:35.816Z,94834.38
2023-03-31T12:16:47.418Z,94825.84
2023-03-31T12:20:07.219Z,94824.41
2023-03-31T12:23:11.279Z,94825.03
2023-03-31T12:26:31.128Z,94820.53
2023-03-31T12:29:41.400Z,94815.25
2023-03-31T12:32:43.564Z,94823.00
2023-03-31T12:36:39.281Z,94820.81
2023-03-31T12:40:33.990Z,94820.19
2023-03-31T12:44:03.072Z,94828.44
2023-03-31T12:47:18.839Z,94822.41
2023-03-31T12:50:53.574Z,94823.66
2023-03-31T12:54:07.749Z,94836.22
2023-03-31T12:57:08.706Z,94828.31
2023-03-31T13:00:12.578Z,94823.31
2023-03-31T13:04:09.002Z,94822.09
2023-03-31T13:07:28.234Z,94835.34
2023-03-31T13:10:29.515Z,94838.47
2023-03-31T13:13:26.896Z,94828.03
2023-03-31T13:16:23.816Z,94834.72
2023-03-31T13:19:36.372Z,94846.44
2023-03-31T13:22:37.821Z,94827.78
2023-03-31T13:25:55.490Z,94842.69
2023-03-31T13:29:19.443Z,94835.66
2023-03-31T13:32:23.065Z,94827.91
2023-03-31T13:35:28.717Z,94823.25
2023-03-31T13:38:59.897Z,94820.44
2023-03-31T13:42:32.976Z,94840.59
2023-03-31T13:45:59.642Z,94841.38
2023-03-31T13:49:44.965Z,94836.94
2023-03-31T13:53:19.928Z,94831.59
2023-03-31T13:56:23.860Z,94814.38
2023-03-31T13:59:51.596Z,94803.31
2023-03-31T14:03:50.117Z,94795.66
2023-03-31T14:07:31.757Z,94775.88
2023-03-31T14:10:34.148Z,94768.19
2023-03-31T14:13:30.995Z,94758.81
2023-03-31T14:16:31.566Z,94738.50
2023-03-31T14:19:52.097Z,94737.50
2023-03-31T14:22:48.875Z,94735.78
2023-03-31T14:26:03.947Z,94741.63
2023-03-31T14:29:10.576Z,94750.47
2023-03-31T14:33:04.350Z,94762.72
2023-03-31T14:36:28.344Z,94762.91
2023-03-31T14:39:35.054Z,94780.13
2023-03-31T14:42:49.514Z,94796.84
2023-03-31T14:45:46.360Z,94793.53
2023-03-31T14:48:51.047Z,94795.66
2023-03-31T14:51:51.429Z,94801.75
2023-03-31T14:54:48.488Z,94806.22
2023-03-31T14:57:49.719Z,94803.06
2023-03-31T15:00:47.592Z,94802.75
2023-03-31T15:03:46.190Z,94795.19
2023-03-31T15:06:46.696Z,94796.63
2023-03-31T15:09:49.754Z,94794.97
2023-03-31T15:12:49.968Z,94794.75
2023-03-31T15:15:46.963Z,94787.41
2023-03-31T15:18:44.951Z,94794.63
2023-03-31T15:21:41.871Z,94784.06
2023-03-31T15:24:38.811Z,94780.19
2023-03-31T15:27:40.784Z,94778.53
2023-03-31T15:30:38.103Z,94789.06
2023-03-31T15:33:41.267Z,94774.84
2023-03-31T15:36:38.761Z,94776.75
2023-03-31T15:39:38.236Z,94780.81
2023-03-31T15:42:36.930Z,94779.91
2023-03-31T15:45:50.149Z,94787.22
2023-03-31T15:48:54.250Z,94778.84
2023-03-31T15:51:53.165Z,94783.94
2023-03-31T15:54:50.141Z,94773.38
2023-03-31T15:57:47.001Z,94771.94
2023-03-31T16:00:47.907Z,94763.16
2023-03-31T16:03:45.759Z,94755.59
2023-03-31T16:07:08.242Z,94750.41
2023-03-31T16:10:23.182Z,94750.59
2023-03-31T16:13:23.294Z,94740.03
2023-03-31T16:16:24.014Z,94747.72
2023-03-31T16:19:23.100Z,94755.31
2023-03-31T16:22:24.310Z,94742.84
2023-03-31T16:25:24.090Z,94752.63
2023-03-31T16:28:28.316Z,94757.03
2023-03-31T16:31:35.231Z,94755.13
2023-03-31T16:34:32.420Z,94756.34
2023-03-31T16:37:29.789Z,94757.03
2023-03-31T16:40:26.876Z,94759.50
2023-03-31T16:43:27.261Z,94757.94
2023-03-31T16:46:24.844Z,94761.72
2023-03-31T16:49:21.739Z,94770.63
2023-03-31T16:52:18.694Z,94768.16
2023-03-31T16:55:15.722Z,94755.72
2023-03-31T16:58:12.930Z,94760.06
2023-03-31T17:01:13.102Z,94759.63
2023-03-31T17:04:09.959Z,94775.97
2023-03-31T17:07:06.787Z,94769.63
2023-03-31T17:10:03.970Z,94766.84
2023-03-31T17:13:01.129Z,94770.84
2023-03-31T17:16:15.292Z,94765.72
2023-03-31T17:19:17.323Z,94768.84
2023-03-31T17:22:14.165Z,94769.28
2023-03-31T17:25:11.472Z,94771.91
2023-03-31T17:28:08.351Z,94764.25
2023-03-31T17:31:17.732Z,94769.16
2023-03-31T17:34:14.662Z,94764.38
2023-03-31T17:37:12.435Z,94766.47
2023-03-31T17:40:09.844Z,94775.94
2023-03-31T17:43:07.299Z,94773.72
2023-03-31T17:46:13.240Z,94777.38
2023-03-31T17:49:11.130Z,94783.69
2023-03-31T17:52:08.043Z,94768.06
2023-03-31T17:55:05.656Z,94775.50
2023-03-31T17:58:02.551Z,94783.28
2023-03-31T18:00:59.853Z,94783.84
2023-03-31T18:03:57.768Z,94786.16
2023-03-31T18:06:54.931Z,94792.16
2023-03-31T18:09:51.957Z,94798.22
2023-03-31T18:12:48.793Z,94798.13
2023-03-31T18:15:52.722Z,94799.91
2023-03-31T18:18:49.650Z,94805.44
2023-03-31T18:21:46.509Z,94824.78
2023-03-31T18:24:44.417Z,94822.13
2023-03-31T18:27:41.915Z,94820.56
2023-03-31T18:30:39.234Z,94828.91
2023-03-31T18:33:36.526Z,94825.75
2023-03-31T18:36:34.191Z,94837.50
2023-03-31T18:39:31.544Z,94831.91
2023-03-31T18:42:28.375Z,94832.53
2023-03-31T18:45:25.433Z,94844.38
2023-03-31T18:48:23.237Z,94843.69
2023-03-31T18:51:20.161Z,94841.31
2023-03-31T18:54:17.560Z,94843.81
2023-03-31T18:57:14.467Z,94846.41
2023-03-31T19:00:12.336Z,94855.91
2023-03-31T19:03:09.847Z,94850.13
2023-03-31T19:06:10.227Z,94855.78
2023-03-31T19:09:07.154Z,94846.44
2023-03-31T19:12:04.484Z,94854.59
2023-03-31T19:15:01.427Z,94841.34
2023-03-31T19:17:58.323Z,94847.47
2023-03-31T19:20:56.270Z,94841.28
2023-03-31T19:23:53.106Z,94839.41
2023-03-31T19:26:50.484Z,94840.41
2023-03-31T19:29:47.322Z,94838.84
2023-03-31T19:32:49.521Z,94832.91
2023-03-31T19:35:48.382Z,94833.97
2023-03-31T19:38:45.355Z,94831.28
2023-03-31T19:41:42.284Z,94842.91
2023-03-31T19:44:39.373Z,94841.09
2023-03-31T19:47:36.611Z,94839.94
2023-03-31T19:50:33.630Z,94837.06
2023-03-31T19:53:31.338Z,94841.28
2023-03-31T19:56:28.594Z,94831.13
2023-03-31T19:59:25.790Z,94826.09
2023-03-31T20:02:23.609Z,94838.06
2023-03-31T20:05:20.977Z,94821.41
2023-03-31T20:08:18.248Z,94827.34
2023-03-31T20:11:16.547Z,94818.63
2023-03-31T20:14:15.365Z,94819.66
2023-03-31T20:17:12.927Z,94820.53
2023-03-31T20:20:10.150Z,94836.28
2023-03-31T20:23:06.979Z,94828.19
2023-03-31T20:26:06.634Z,94823.69
2023-03-31T20:29:04.221Z,94841.22
2023-03-31T20:32:02.650Z,94829.88
2023-03-31T20:35:00.412Z,94836.94
2023-03-31T20:37:57.269Z,94838.13
2023-03-31T20:40:55.107Z,94834.50
2023-03-31T20:43:52.247Z,94835.25
2023-03-31T20:46:49.115Z,94836.59
2023-03-31T20:49:46.557Z,94834.94
2023-03-31T20:52:47.489Z,94829.06
2023-03-31T20:55:44.608Z,94836.69
2023-03-31T20:58:43.916Z,94832.19
2023-03-31T21:01:42.555Z,94841.41
2023-03-31T21:04:39.620Z,94846.94
2023-03-31T21:07:36.475Z,94845.22
2023-03-31T21:10:43.333Z,94844.41
2023-03-31T21:13:40.249Z,94855.69
2023-03-31T21:16:37.509Z,94855.72
2023-03-31T21:19:34.467Z,94852.00
2023-03-31T21:22:31.379Z,94855.41
2023-03-31T21:25:28.475Z,94848.81
2023-03-31T21:28:32.747Z,94850.06
2023-03-31T21:31:29.618Z,94844.84
2023-03-31T21:34:27.208Z,94847.59
2023-03-31T21:37:24.703Z,94843.50
2023-03-31T21:40:22.004Z,94846.09
2023-03-31T21:43:20.060Z,94834.09
2023-03-31T21:46:21.067Z,94844.84
2023-03-31T21:49:19.028Z,94847.59
2023-03-31T21:52:15.862Z,94844.47
2023-03-31T21:55:12.716Z,94845.72
2023-03-31T21:58:10.320Z,94842.28
2023-03-31T22:01:08.344Z,94840.06
2023-03-31T22:04:05.315Z,94840.81
2023-03-31T22:07:02.149Z,94847.25
2023-03-31T22:09:59.083Z,94843.25
2023-03-31T22:12:56.134Z,94849.03
2023-03-31T22:15:53.539Z,94841.16
2023-03-31T22:18:50.789Z,94851.25
2023-03-31T22:21:49.932Z,94840.91
2023-03-31T22:24:46.762Z,94844.09
2023-03-31T22:27:45.474Z,94841.09
2023-03-31T22:30:42.954Z,94845.78
2023-03-31T22:33:39.788Z,94844.03
2023-03-31T22:36:36.648Z,94836.34
2023-03-31T22:39:33.480Z,94840.44
2023-03-31T22:42:30.298Z,94844.72
2023-03-31T22:45:27.366Z,94841.28
2023-03-31T22:48:24.189Z,94845.50
2023-03-31T22:51:21.018Z,94847.88
2023-03-31T22:54:17.979Z,94852.00
2023-03-31T22:57:15.050Z,94850.84
2023-03-31T23:00:13.805Z,94845.84
2023-03-31T23:03:10.886Z,94851.50
2023-03-31T23:06:08.474Z,94845.06
2023-03-31T23:09:05.410Z,94850.91
2023-03-31T23:12:02.238Z,94855.16
2023-03-31T23:14:59.060Z,94855.16
2023-03-31T23:17:56.116Z,94845.78
2023-03-31T23:20:52.962Z,94855.31
2023-03-31T23:23:53.745Z,94850.78
2023-03-31T23:26:50.538Z,94852.34
2023-03-31T23:29:47.433Z,94850.06
2023-03-31T23:32:44.272Z,94844.34
2023-03-31T23:35:41.383Z,94849.34
2023-03-31T23:38:38.292Z,94844.66
2023-03-31T23:41:35.208Z,94854.09
2023-03-31T23:44:33.243Z,94853.66
2023-03-31T23:47:30.138Z,94843.00
2023-03-31T23:50:28.171Z,94832.66
2023-03-31T23:53:25.069Z,94835.56
2023-03-31T23:56:22.296Z,94834.78
2023-03-31T23:59:19.228Z,94831.41
